Yukon, Pennsylvania
Current Conditions -  °F | °C
As of 6:47 AM on Saturday 20 Dec 2014 (Local Time) from KLBE Reporting Station
Overcast Overcast  
Wind Chill: 23°   Ceiling: 2800
Heat Index: 23°   Visibility: 20mi
Dew Point: 19°   Wind: 0mph
Humidity: 86%   Direction: NA
Pressure: 30.29"   Gusts: NA
Location:  40.21°N, 79.68°W
Report Text: KLBE 201147Z 00000KT 20SM OVC028 M05/M07 A3029
Loading
Personal Weather Stations






























Interactive Weather Map New forecast layout! Learn more

10-Day Weather Forecast

Advertisements
Track Severe Weather on mobile